createdAt,value
2022-12-11T00:02:05.429Z,3.40
2022-12-11T00:04:32.469Z,3.38
2022-12-11T00:06:59.136Z,3.36
2022-12-11T00:09:26.214Z,3.38
2022-12-11T00:11:52.882Z,3.32
2022-12-11T00:14:19.588Z,3.30
2022-12-11T00:16:48.193Z,3.30
2022-12-11T00:19:15.629Z,3.30
2022-12-11T00:21:42.675Z,3.30
2022-12-11T00:24:09.778Z,3.30
2022-12-11T00:26:36.579Z,3.30
2022-12-11T00:29:03.713Z,3.30
2022-12-11T00:31:30.902Z,3.30
2022-12-11T00:33:57.915Z,3.20
2022-12-11T00:36:26.610Z,3.20
2022-12-11T00:38:54.294Z,3.20
2022-12-11T00:41:21.509Z,3.20
2022-12-11T00:43:48.405Z,3.20
2022-12-11T00:46:15.457Z,3.10
2022-12-11T00:48:42.549Z,3.10
2022-12-11T00:51:10.525Z,3.00
2022-12-11T00:53:38.487Z,2.90
2022-12-11T00:56:13.832Z,2.90
2022-12-11T00:58:40.761Z,2.80
2022-12-11T01:01:13.710Z,2.78
2022-12-11T01:03:40.772Z,2.70
2022-12-11T01:06:08.124Z,2.68
2022-12-11T01:08:38.562Z,2.70
2022-12-11T01:11:10.147Z,2.70
2022-12-11T01:13:38.412Z,2.70
2022-12-11T01:16:10.466Z,2.70
2022-12-11T01:18:37.833Z,2.78
2022-12-11T01:21:10.461Z,2.80
2022-12-11T01:23:38.476Z,2.80
2022-12-11T01:26:10.446Z,2.80
2022-12-11T01:28:37.312Z,2.80
2022-12-11T01:31:09.136Z,2.80
2022-12-11T01:33:35.989Z,2.80
2022-12-11T01:36:18.094Z,2.80
2022-12-11T01:38:46.446Z,2.80
2022-12-11T01:41:14.023Z,2.80
2022-12-11T01:44:08.520Z,2.80
2022-12-11T01:46:36.855Z,2.80
2022-12-11T01:49:08.300Z,2.70
2022-12-11T01:51:41.431Z,2.70
2022-12-11T01:54:12.213Z,2.70
2022-12-11T01:56:43.816Z,2.70
2022-12-11T01:59:11.275Z,2.70
2022-12-11T02:01:43.198Z,2.70
2022-12-11T02:04:16.058Z,2.72
2022-12-11T02:06:48.740Z,2.80
2022-12-11T02:09:22.314Z,2.70
2022-12-11T02:12:07.690Z,2.70
2022-12-11T02:14:40.060Z,2.70
2022-12-11T02:17:22.864Z,2.66
2022-12-11T02:19:59.755Z,2.62
2022-12-11T02:23:11.539Z,2.60
2022-12-11T02:25:50.200Z,2.60
2022-12-11T02:28:35.226Z,2.60
2022-12-11T02:31:12.771Z,2.70
2022-12-11T02:33:56.666Z,2.70
2022-12-11T02:36:26.453Z,2.70
2022-12-11T02:38:55.579Z,2.70
2022-12-11T02:41:24.861Z,2.70
2022-12-11T02:43:53.348Z,2.70
2022-12-11T02:46:21.735Z,2.70
2022-12-11T02:48:51.239Z,2.70
2022-12-11T02:51:22.428Z,2.70
2022-12-11T02:53:52.392Z,2.68
2022-12-11T02:56:24.762Z,2.66
2022-12-11T02:59:00.613Z,2.64
2022-12-11T03:01:27.815Z,2.68
2022-12-11T03:03:56.426Z,2.66
2022-12-11T03:06:29.287Z,2.62
2022-12-11T03:08:56.278Z,2.70
2022-12-11T03:11:23.170Z,2.70
2022-12-11T03:13:50.107Z,2.70
2022-12-11T03:16:39.723Z,2.70
2022-12-11T03:19:15.388Z,2.70
2022-12-11T03:22:00.676Z,2.70
2022-12-11T03:24:33.550Z,2.70
2022-12-11T03:27:11.251Z,2.70
2022-12-11T03:29:45.566Z,2.70
2022-12-11T03:32:23.493Z,2.70
2022-12-11T03:34:58.175Z,2.70
2022-12-11T03:37:28.442Z,2.70
2022-12-11T03:40:02.540Z,2.70
2022-12-11T03:42:29.881Z,2.70
2022-12-11T03:45:00.104Z,2.60
2022-12-11T03:47:29.884Z,2.60
2022-12-11T03:49:59.727Z,2.60
2022-12-11T03:52:29.128Z,2.60
2022-12-11T03:55:01.731Z,2.60
2022-12-11T03:57:34.715Z,2.60
2022-12-11T04:00:05.141Z,2.60
2022-12-11T04:02:39.161Z,2.60
2022-12-11T04:05:06.480Z,2.60
2022-12-11T04:07:33.220Z,2.60
2022-12-11T04:10:00.348Z,2.60
2022-12-11T04:12:27.070Z,2.60
2022-12-11T04:15:02.486Z,2.60
2022-12-11T04:17:50.286Z,2.60
2022-12-11T04:20:36.279Z,2.60
2022-12-11T04:23:40.086Z,2.60
2022-12-11T04:26:12.904Z,2.60
2022-12-11T04:28:40.324Z,2.60
2022-12-11T04:31:11.935Z,2.60
2022-12-11T04:33:38.886Z,2.60
2022-12-11T04:36:06.381Z,2.60
2022-12-11T04:38:33.444Z,2.60
2022-12-11T04:41:12.088Z,2.54
2022-12-11T04:43:39.559Z,2.60
2022-12-11T04:46:06.234Z,2.52
2022-12-11T04:48:33.603Z,2.50
2022-12-11T04:51:00.309Z,2.50
2022-12-11T04:53:28.306Z,2.40
2022-12-11T04:55:55.661Z,2.40
2022-12-11T04:58:23.730Z,2.40
2022-12-11T05:00:51.190Z,2.36
2022-12-11T05:03:18.343Z,2.30
2022-12-11T05:05:53.164Z,2.30
2022-12-11T05:08:21.085Z,2.30
2022-12-11T05:11:05.793Z,2.36
2022-12-11T05:13:33.562Z,2.36
2022-12-11T05:16:00.582Z,2.30
2022-12-11T05:18:27.340Z,2.30
2022-12-11T05:20:58.736Z,2.30
2022-12-11T05:23:26.295Z,2.30
2022-12-11T05:26:04.667Z,2.30
2022-12-11T05:28:33.967Z,2.30
2022-12-11T05:31:04.976Z,2.30
2022-12-11T05:33:32.290Z,2.30
2022-12-11T05:35:59.050Z,2.30
2022-12-11T05:38:26.303Z,2.30
2022-12-11T05:41:05.320Z,2.24
2022-12-11T05:43:34.986Z,2.20
2022-12-11T05:46:09.078Z,2.20
2022-12-11T05:48:37.321Z,2.20
2022-12-11T05:51:04.732Z,2.20
2022-12-11T05:53:31.674Z,2.20
2022-12-11T05:56:11.047Z,2.20
2022-12-11T05:58:39.522Z,2.20
2022-12-11T06:01:25.251Z,2.20
2022-12-11T06:03:53.262Z,2.20
2022-12-11T06:06:20.392Z,2.20
2022-12-11T06:08:50.634Z,2.20
2022-12-11T06:11:23.634Z,2.20
2022-12-11T06:13:51.211Z,2.20
2022-12-11T06:16:18.063Z,2.20
2022-12-11T06:18:45.784Z,2.20
2022-12-11T06:21:18.363Z,2.20
2022-12-11T06:23:47.243Z,2.20
2022-12-11T06:26:15.599Z,2.10
2022-12-11T06:28:42.637Z,2.10
2022-12-11T06:31:09.754Z,2.04
2022-12-11T06:33:37.366Z,2.00
2022-12-11T06:36:06.147Z,1.90
2022-12-11T06:38:33.107Z,1.90
2022-12-11T06:41:01.430Z,1.80
2022-12-11T06:43:28.421Z,1.80
2022-12-11T06:45:59.166Z,1.80
2022-12-11T06:48:28.875Z,1.80
2022-12-11T06:50:55.604Z,1.80
2022-12-11T06:53:22.338Z,1.80
2022-12-11T06:55:49.049Z,1.80
2022-12-11T06:58:15.861Z,1.80
2022-12-11T07:00:43.045Z,1.80
2022-12-11T07:03:10.635Z,1.80
2022-12-11T07:05:37.295Z,1.82
2022-12-11T07:08:04.158Z,1.90
2022-12-11T07:10:30.974Z,1.90
2022-12-11T07:12:57.655Z,1.90
2022-12-11T07:15:24.319Z,1.90
2022-12-11T07:17:51.003Z,1.90
2022-12-11T07:20:17.814Z,1.90
2022-12-11T07:22:46.672Z,2.00
2022-12-11T07:25:14.978Z,2.00
2022-12-11T07:27:41.779Z,2.10
2022-12-11T07:30:09.997Z,2.16
2022-12-11T07:32:36.794Z,2.20
2022-12-11T07:35:04.476Z,2.20
2022-12-11T07:37:31.442Z,2.26
2022-12-11T07:39:58.153Z,2.28
2022-12-11T07:42:24.906Z,2.30
2022-12-11T07:44:51.667Z,2.30
2022-12-11T07:47:18.416Z,2.34
2022-12-11T07:49:45.094Z,2.40
2022-12-11T07:52:11.755Z,2.48
2022-12-11T07:54:38.618Z,2.50
2022-12-11T07:57:08.181Z,2.50
2022-12-11T07:59:39.269Z,2.60
2022-12-11T08:02:06.268Z,2.70
2022-12-11T08:04:33.056Z,2.70
2022-12-11T08:07:00.207Z,2.70
2022-12-11T08:09:26.947Z,2.80
2022-12-11T08:11:53.687Z,2.80
2022-12-11T08:14:20.941Z,2.88
2022-12-11T08:16:48.294Z,2.90
2022-12-11T08:19:15.788Z,2.90
2022-12-11T08:21:42.829Z,3.00
2022-12-11T08:24:10.445Z,3.00
2022-12-11T08:26:37.201Z,3.06
2022-12-11T08:29:04.361Z,3.10
2022-12-11T08:31:33.241Z,3.02
2022-12-11T08:34:00.444Z,3.00
2022-12-11T08:36:27.229Z,3.00
2022-12-11T08:38:55.709Z,3.00
2022-12-11T08:41:28.347Z,2.98
2022-12-11T08:43:56.512Z,3.00
2022-12-11T08:46:26.124Z,3.00
2022-12-11T08:48:54.958Z,3.06
2022-12-11T08:51:23.816Z,3.10
2022-12-11T08:53:51.610Z,3.10
2022-12-11T08:56:23.648Z,3.10
2022-12-11T08:58:51.349Z,3.20
2022-12-11T09:01:24.027Z,3.20
2022-12-11T09:03:52.396Z,3.30
2022-12-11T09:06:22.136Z,3.44
2022-12-11T09:08:52.809Z,3.50
2022-12-11T09:11:23.065Z,3.60
2022-12-11T09:13:50.781Z,3.70
2022-12-11T09:16:21.218Z,3.80
2022-12-11T09:18:49.331Z,3.80
2022-12-11T09:21:19.097Z,3.90
2022-12-11T09:23:46.132Z,3.98
2022-12-11T09:26:16.194Z,4.00
2022-12-11T09:28:46.769Z,4.00
2022-12-11T09:31:16.712Z,3.94
2022-12-11T09:33:43.937Z,4.00
2022-12-11T09:36:12.171Z,3.90
2022-12-11T09:38:39.005Z,3.90
2022-12-11T09:41:33.023Z,4.00
2022-12-11T09:44:35.363Z,4.10
2022-12-11T09:47:02.408Z,4.20
2022-12-11T09:49:43.687Z,4.22
2022-12-11T09:52:16.214Z,4.30
2022-12-11T09:54:50.238Z,4.38
2022-12-11T09:57:37.491Z,4.46
2022-12-11T10:00:21.949Z,4.58
2022-12-11T10:03:01.304Z,4.60
2022-12-11T10:06:02.649Z,4.62
2022-12-11T10:08:43.917Z,4.70
2022-12-11T10:11:40.146Z,4.70
2022-12-11T10:14:11.819Z,4.70
2022-12-11T10:16:48.887Z,4.64
2022-12-11T10:19:24.529Z,4.60
2022-12-11T10:21:52.709Z,4.50
2022-12-11T10:25:09.553Z,4.42
2022-12-11T10:27:31.592Z,4.44
2022-12-11T10:30:14.367Z,4.48
2022-12-11T10:33:02.044Z,4.40
2022-12-11T10:35:54.030Z,4.40
2022-12-11T10:38:33.072Z,4.40
2022-12-11T10:41:03.996Z,4.38
2022-12-11T10:43:43.281Z,4.30
2022-12-11T10:46:23.068Z,4.30
2022-12-11T10:49:01.016Z,4.20
2022-12-11T10:51:30.584Z,4.20
2022-12-11T10:54:17.508Z,4.20
2022-12-11T10:56:48.345Z,4.24
2022-12-11T10:59:45.523Z,4.30
2022-12-11T11:02:27.453Z,4.44
2022-12-11T11:04:56.540Z,4.40
2022-12-11T11:07:26.167Z,4.40
2022-12-11T11:10:25.693Z,4.40
2022-12-11T11:13:01.412Z,4.44
2022-12-11T11:15:31.307Z,4.50
2022-12-11T11:18:16.445Z,4.42
2022-12-11T11:20:47.995Z,4.40
2022-12-11T11:23:17.279Z,4.30
2022-12-11T11:25:55.605Z,4.30
2022-12-11T11:28:27.011Z,4.20
2022-12-11T11:31:14.993Z,4.24
2022-12-11T11:33:46.632Z,4.22
2022-12-11T11:36:28.936Z,4.20
2022-12-11T11:39:33.465Z,4.20
2022-12-11T11:42:18.839Z,4.20
2022-12-11T11:44:59.917Z,4.20
2022-12-11T11:47:34.754Z,4.28
2022-12-11T11:50:15.513Z,4.30
2022-12-11T11:52:45.531Z,4.32
2022-12-11T11:55:22.286Z,4.40
2022-12-11T11:58:16.898Z,4.30
2022-12-11T12:00:43.845Z,4.20
2022-12-11T12:03:17.190Z,4.20
2022-12-11T12:05:43.876Z,4.10
2022-12-11T12:08:24.561Z,4.10
2022-12-11T12:11:22.648Z,4.02
2022-12-11T12:14:43.608Z,4.00
2022-12-11T12:17:16.986Z,4.00
2022-12-11T12:19:59.243Z,3.96
2022-12-11T12:22:38.256Z,3.90
2022-12-11T12:25:36.015Z,3.90
2022-12-11T12:28:05.730Z,3.90
2022-12-11T12:30:45.168Z,3.80
2022-12-11T12:33:38.226Z,3.84
2022-12-11T12:36:17.461Z,3.80
2022-12-11T12:38:47.067Z,3.80
2022-12-11T12:41:55.481Z,3.80
2022-12-11T12:44:25.530Z,3.82
2022-12-11T12:47:13.646Z,3.88
2022-12-11T12:49:43.140Z,3.80
2022-12-11T12:52:21.566Z,3.80
2022-12-11T12:55:12.615Z,3.80
2022-12-11T12:57:48.423Z,3.80
2022-12-11T13:00:31.235Z,3.70
2022-12-11T13:03:01.318Z,3.74
2022-12-11T13:05:34.461Z,3.70
2022-12-11T13:08:04.928Z,3.70
2022-12-11T13:10:33.306Z,3.60
2022-12-11T13:13:02.040Z,3.50
2022-12-11T13:15:33.800Z,3.40
2022-12-11T13:18:03.812Z,3.38
2022-12-11T13:20:34.503Z,3.30
2022-12-11T13:23:07.239Z,3.20
2022-12-11T13:25:50.338Z,3.10
2022-12-11T13:28:31.449Z,3.00
2022-12-11T13:31:26.834Z,2.96
2022-12-11T13:33:57.326Z,2.90
2022-12-11T13:36:26.769Z,2.90
2022-12-11T13:39:07.259Z,2.82
2022-12-11T13:41:36.832Z,2.80
2022-12-11T13:44:05.225Z,2.70
2022-12-11T13:46:36.783Z,2.70
2022-12-11T13:49:07.059Z,2.70
2022-12-11T13:51:38.066Z,2.70
2022-12-11T13:54:06.201Z,2.70
2022-12-11T13:56:33.772Z,2.70
2022-12-11T13:59:00.602Z,2.70
2022-12-11T14:01:34.432Z,2.60
2022-12-11T14:04:09.322Z,2.60
2022-12-11T14:06:38.982Z,2.52
2022-12-11T14:09:07.255Z,2.50
2022-12-11T14:11:42.257Z,2.50
2022-12-11T14:14:33.302Z,2.50
2022-12-11T14:17:00.516Z,2.50
2022-12-11T14:19:27.874Z,2.40
2022-12-11T14:22:02.909Z,2.40
2022-12-11T14:24:31.181Z,2.30
2022-12-11T14:26:58.699Z,2.30
2022-12-11T14:29:29.671Z,2.20
2022-12-11T14:32:00.119Z,2.12
2022-12-11T14:34:34.421Z,2.10
2022-12-11T14:37:05.992Z,2.06
2022-12-11T14:39:44.901Z,2.00
2022-12-11T14:42:17.285Z,1.98
2022-12-11T14:44:50.426Z,1.90
2022-12-11T14:47:32.154Z,1.86
2022-12-11T14:50:47.739Z,1.80
2022-12-11T14:53:19.619Z,1.82
2022-12-11T14:55:49.249Z,1.80
2022-12-11T14:58:25.105Z,1.70
2022-12-11T15:01:05.833Z,1.70
2022-12-11T15:03:39.059Z,1.70
2022-12-11T15:06:28.592Z,1.70
2022-12-11T15:08:55.716Z,1.70
2022-12-11T15:11:24.837Z,1.60
2022-12-11T15:13:54.587Z,1.60
2022-12-11T15:16:23.233Z,1.50
2022-12-11T15:18:52.372Z,1.50
2022-12-11T15:21:28.095Z,1.40
2022-12-11T15:24:00.600Z,1.40
2022-12-11T15:26:37.329Z,1.40
2022-12-11T15:29:07.447Z,1.40
2022-12-11T15:31:37.820Z,1.40
2022-12-11T15:34:22.308Z,1.40
2022-12-11T15:36:48.967Z,1.40
2022-12-11T15:39:15.661Z,1.40
2022-12-11T15:41:43.266Z,1.38
2022-12-11T15:44:18.493Z,1.38
2022-12-11T15:46:45.413Z,1.54
2022-12-11T15:49:13.038Z,1.40
2022-12-11T15:51:43.199Z,1.38
2022-12-11T15:54:10.377Z,1.30
2022-12-11T15:56:37.017Z,1.22
2022-12-11T15:59:06.973Z,1.20
2022-12-11T16:01:34.641Z,1.20
2022-12-11T16:04:04.948Z,1.20
2022-12-11T16:06:33.219Z,1.20
2022-12-11T16:09:00.179Z,1.26
2022-12-11T16:11:27.285Z,1.30
2022-12-11T16:13:54.043Z,1.30
2022-12-11T16:16:20.835Z,1.30
2022-12-11T16:18:50.365Z,1.30
2022-12-11T16:21:21.437Z,1.28
2022-12-11T16:23:48.973Z,1.30
2022-12-11T16:26:15.886Z,1.38
2022-12-11T16:28:43.306Z,1.40
2022-12-11T16:31:14.352Z,1.40
2022-12-11T16:33:41.868Z,1.34
2022-12-11T16:36:14.343Z,1.30
2022-12-11T16:38:41.185Z,1.30
2022-12-11T16:41:08.033Z,1.28
2022-12-11T16:43:34.756Z,1.26
2022-12-11T16:46:01.837Z,1.28
2022-12-11T16:48:28.593Z,1.16
2022-12-11T16:50:57.168Z,1.24
2022-12-11T16:53:24.963Z,1.22
2022-12-11T16:55:51.963Z,1.20
2022-12-11T16:58:20.253Z,1.20
2022-12-11T17:00:48.366Z,1.20
2022-12-11T17:03:15.752Z,1.20
2022-12-11T17:05:44.370Z,1.16
2022-12-11T17:08:13.213Z,1.14
2022-12-11T17:10:42.006Z,1.12
2022-12-11T17:13:09.690Z,1.10
2022-12-11T17:15:41.558Z,1.20
2022-12-11T17:18:09.345Z,1.14
2022-12-11T17:20:45.067Z,1.14
2022-12-11T17:23:13.524Z,1.14
2022-12-11T17:25:42.415Z,1.10
2022-12-11T17:28:11.318Z,1.10
2022-12-11T17:30:43.086Z,1.10
2022-12-11T17:33:10.937Z,1.18
2022-12-11T17:35:38.206Z,1.20
2022-12-11T17:38:05.877Z,1.20
2022-12-11T17:40:32.986Z,1.22
2022-12-11T17:43:00.456Z,1.28
2022-12-11T17:45:27.532Z,1.30
2022-12-11T17:47:55.287Z,1.30
2022-12-11T17:50:22.004Z,1.30
2022-12-11T17:52:48.744Z,1.40
2022-12-11T17:55:15.864Z,1.40
2022-12-11T17:57:42.940Z,1.40
2022-12-11T18:00:10.294Z,1.50
2022-12-11T18:02:39.087Z,1.50
2022-12-11T18:05:06.297Z,1.50
2022-12-11T18:07:36.849Z,1.50
2022-12-11T18:10:04.322Z,1.50
2022-12-11T18:12:31.184Z,1.40
2022-12-11T18:15:02.640Z,1.40
2022-12-11T18:17:29.489Z,1.40
2022-12-11T18:19:56.200Z,1.36
2022-12-11T18:22:23.343Z,1.34
2022-12-11T18:24:50.049Z,1.30
2022-12-11T18:27:16.926Z,1.30
2022-12-11T18:29:43.567Z,1.30
2022-12-11T18:32:10.271Z,1.22
2022-12-11T18:34:36.945Z,1.20
2022-12-11T18:37:03.668Z,1.20
2022-12-11T18:39:30.417Z,1.20
2022-12-11T18:42:24.349Z,1.10
2022-12-11T18:44:45.027Z,1.10
2022-12-11T18:47:11.938Z,1.08
2022-12-11T18:49:38.678Z,1.12
2022-12-11T18:52:05.947Z,1.18
2022-12-11T18:54:32.874Z,1.20
2022-12-11T18:57:00.052Z,1.10
2022-12-11T18:59:26.867Z,1.00
2022-12-11T19:01:53.672Z,1.00
2022-12-11T19:04:20.742Z,0.94
2022-12-11T19:06:47.495Z,1.00
2022-12-11T19:09:14.205Z,1.00
2022-12-11T19:11:41.710Z,1.00
2022-12-11T19:14:09.806Z,1.00
2022-12-11T19:16:39.874Z,1.00
2022-12-11T19:19:13.777Z,1.00
2022-12-11T19:21:41.263Z,0.98
2022-12-11T19:24:11.735Z,0.90
2022-12-11T19:26:38.808Z,0.90
2022-12-11T19:29:05.509Z,0.90
2022-12-11T19:31:33.018Z,0.80
2022-12-11T19:34:00.642Z,0.84
2022-12-11T19:36:29.262Z,0.80
2022-12-11T19:39:01.370Z,0.80
2022-12-11T19:41:28.988Z,0.80
2022-12-11T19:43:57.561Z,0.80
2022-12-11T19:46:27.570Z,0.90
2022-12-11T19:48:57.266Z,0.92
2022-12-11T19:51:28.440Z,1.00
2022-12-11T19:53:56.102Z,1.00
2022-12-11T19:56:23.291Z,1.00
2022-12-11T19:58:50.093Z,1.04
2022-12-11T20:01:28.970Z,1.10
2022-12-11T20:03:59.660Z,1.10
2022-12-11T20:06:35.805Z,1.10
2022-12-11T20:09:02.817Z,1.18
2022-12-11T20:11:31.945Z,1.20
2022-12-11T20:13:58.996Z,1.20
2022-12-11T20:16:53.405Z,1.10
2022-12-11T20:19:12.755Z,1.10
2022-12-11T20:21:39.495Z,1.10
2022-12-11T20:24:06.748Z,1.10
2022-12-11T20:26:36.086Z,1.02
2022-12-11T20:29:05.357Z,1.00
2022-12-11T20:31:33.248Z,1.00
2022-12-11T20:34:00.066Z,0.90
2022-12-11T20:36:27.493Z,0.90
2022-12-11T20:38:54.559Z,0.80
2022-12-11T20:41:23.858Z,0.80
2022-12-11T20:43:53.158Z,0.90
2022-12-11T20:46:21.381Z,0.80
2022-12-11T20:48:49.268Z,0.70
2022-12-11T20:51:25.257Z,0.68
2022-12-11T20:53:59.056Z,0.72
2022-12-11T20:56:29.393Z,0.70
2022-12-11T20:58:57.281Z,0.60
2022-12-11T21:01:26.167Z,0.50
2022-12-11T21:03:53.702Z,0.40
2022-12-11T21:06:31.348Z,0.26
2022-12-11T21:09:00.494Z,0.20
2022-12-11T21:11:27.909Z,0.10
2022-12-11T21:13:54.882Z,0.10
2022-12-11T21:16:22.308Z,0.00
2022-12-11T21:18:49.296Z,0.00
2022-12-11T21:21:17.059Z,0.00
2022-12-11T21:23:44.812Z,0.00
2022-12-11T21:26:12.416Z,0.04
2022-12-11T21:28:39.121Z,0.08
2022-12-11T21:31:09.957Z,0.00
2022-12-11T21:33:36.784Z,0.10
2022-12-11T21:36:05.937Z,0.10
2022-12-11T21:38:33.453Z,0.10
2022-12-11T21:41:18.128Z,0.10
2022-12-11T21:44:49.835Z,0.20
2022-12-11T21:46:33.947Z,0.30
2022-12-11T21:49:00.761Z,0.30
2022-12-11T21:51:36.452Z,0.32
2022-12-11T21:54:07.353Z,0.40
2022-12-11T21:56:34.297Z,0.40
2022-12-11T21:59:01.792Z,0.40
2022-12-11T22:01:32.186Z,0.38
2022-12-11T22:03:59.412Z,0.40
2022-12-11T22:06:26.133Z,0.40
2022-12-11T22:08:53.110Z,0.32
2022-12-11T22:11:22.920Z,0.30
2022-12-11T22:13:49.866Z,0.32
2022-12-11T22:16:16.662Z,0.30
2022-12-11T22:18:43.725Z,0.30
2022-12-11T22:21:10.728Z,0.30
2022-12-11T22:23:39.367Z,0.34
2022-12-11T22:26:08.102Z,0.40
2022-12-11T22:28:34.854Z,0.42
2022-12-11T22:31:02.009Z,0.50
2022-12-11T22:33:28.769Z,0.50
2022-12-11T22:36:00.672Z,0.50
2022-12-11T22:38:27.359Z,0.50
2022-12-11T22:40:54.858Z,0.50
2022-12-11T22:43:21.842Z,0.60
2022-12-11T22:45:49.418Z,0.60
2022-12-11T22:48:16.340Z,0.60
2022-12-11T22:50:43.592Z,0.60
2022-12-11T22:53:10.593Z,0.50
2022-12-11T22:55:40.658Z,0.50
2022-12-11T22:58:07.702Z,0.48
2022-12-11T23:00:34.406Z,0.50
2022-12-11T23:03:02.110Z,0.50
2022-12-11T23:05:29.409Z,0.40
2022-12-11T23:07:56.252Z,0.40
2022-12-11T23:10:23.414Z,0.30
2022-12-11T23:12:50.542Z,0.22
2022-12-11T23:15:18.839Z,0.20
2022-12-11T23:17:45.682Z,0.12
2022-12-11T23:20:12.832Z,0.10
2022-12-11T23:22:40.186Z,0.00
2022-12-11T23:25:07.294Z,0.00
2022-12-11T23:27:33.956Z,-0.10
2022-12-11T23:30:00.816Z,-0.10
2022-12-11T23:32:27.485Z,-0.20
2022-12-11T23:34:54.192Z,-0.20
2022-12-11T23:37:20.837Z,-0.16
2022-12-11T23:39:47.672Z,-0.18
2022-12-11T23:42:14.638Z,-0.12
2022-12-11T23:44:41.663Z,-0.10
2022-12-11T23:47:08.455Z,-0.10
2022-12-11T23:49:36.169Z,0.00
2022-12-11T23:52:03.379Z,0.00
2022-12-11T23:54:31.072Z,0.10
2022-12-11T23:56:57.945Z,0.10
2022-12-11T23:59:24.662Z,0.18
